Terminal Aerodrome Forecast
Issued by NWS

Home | Current Version | Previous Version | Text Only | Print | Product List | Glossary On
Versions: 1 2 3 4 5 6 7 8 9 10 11 12 13 14 15 16 17 18 19 20 21 22 23 24 25 26 27 28 29 30 31 32 33 34 35 36 37 38
050
FTUS41 KRNK 061132
TAFLWB
TAF
KLWB 061132Z 0612/0712 32004KT P6SM SCT025 OVC040
      TEMPO 0612/0614 OVC025
     FM061700 32010G20KT P6SM VCSH OVC030
     FM062100 31010G18KT P6SM OVC045
     FM070000 32006KT P6SM BKN045
     FM070900 32005KT P6SM SCT050=

USA.gov is the U.S. government's official web portal to all federal, state and local government web resources and services.